Time;durP1;ratioP1;P1;durP2;ratioP2;P2;SDS_P1;SDS_P2;PMS_P1;PMS_P2;Temp;Humidity;BMP_temperature;BMP_pressure;BME280_temperature;BME280_humidity;BME280_pressure;Samples;Min_cycle;Max_cycle;Signal;HPM_P1;HPM_P2
2022/10/13 00:00:59;;;;;;;29.30;15.38;;;;;;;;;;6208113;23;20020;-86
2022/10/13 00:03:27;;;;;;;26.92;14.27;;;;;;;;;;6207065;23;20025;-87
2022/10/13 00:05:54;;;;;;;30.95;15.32;;;;;;;;;;6156453;23;20062;-87
2022/10/13 00:08:21;;;;;;;30.30;13.98;;;;;;;;;;6154442;23;20017;-88
2022/10/13 00:10:49;;;;;;;26.33;14.38;;;;;;;;;;6181344;23;20449;-87
2022/10/13 00:13:16;;;;;;;27.75;13.90;;;;;;;;;;6178300;23;20134;-86
2022/10/13 00:15:43;;;;;;;24.45;14.52;;;;;;;;;;6207262;23;20067;-86
2022/10/13 00:18:21;;;;;;;28.02;14.45;;;;;;;;;;6202714;23;20056;-87
2022/10/13 00:20:53;;;;;;;26.75;13.65;;;;;;;;;;6178899;23;20338;-87
2022/10/13 00:23:19;;;;;;;28.00;14.05;;;;;;;;;;6202529;23;20024;-86
2022/10/13 00:25:46;;;;;;;22.48;13.57;;;;;;;;;;6154648;23;20048;-85
2022/10/13 00:28:13;;;;;;;30.05;14.38;;;;;;;;;;6204770;23;20476;-84
2022/10/13 00:30:39;;;;;;;31.33;15.10;;;;;;;;;;6207468;23;20067;-86
2022/10/13 00:33:06;;;;;;;29.15;14.90;;;;;;;;;;6204781;23;20039;-85
2022/10/13 00:35:32;;;;;;;21.08;14.10;;;;;;;;;;6202594;23;20467;-86
2022/10/13 00:37:58;;;;;;;28.13;15.23;;;;;;;;;;6203494;23;20025;-86
2022/10/13 00:40:24;;;;;;;27.55;14.88;;;;;;;;;;6151674;23;20031;-86
2022/10/13 00:42:50;;;;;;;29.40;16.05;;;;;;;;;;6205977;23;20044;-86
2022/10/13 00:45:21;;;;;;;29.58;14.95;;;;;;;;;;6203344;23;20105;-86
2022/10/13 00:47:49;;;;;;;29.70;14.95;;;;;;;;;;6209382;23;20058;-87
2022/10/13 00:50:19;;;;;;;31.30;15.23;;;;;;;;;;6216181;23;20454;-87
2022/10/13 00:52:46;;;;;;;32.83;15.75;;;;;;;;;;6218536;23;20021;-86
2022/10/13 00:58:14;;;;;;;29.10;16.30;;;;;;;;;;6205247;23;20123;-86
2022/10/13 01:00:51;;;;;;;32.63;17.08;;;;;;;;;;6204246;23;20055;-87
2022/10/13 01:03:29;;;;;;;26.52;14.40;;;;;;;;;;6200275;23;20121;-86
2022/10/13 01:05:57;;;;;;;32.47;16.15;;;;;;;;;;6206438;23;20096;-87
2022/10/13 01:08:25;;;;;;;32.67;15.55;;;;;;;;;;6201148;23;20044;-87
2022/10/13 01:11:07;;;;;;;27.30;15.30;;;;;;;;;;6205035;23;20024;-86
2022/10/13 01:14:00;;;;;;;29.77;15.48;;;;;;;;;;6204670;23;20081;-86
2022/10/13 01:16:26;;;;;;;32.20;15.63;;;;;;;;;;6157369;23;20067;-87
2022/10/13 01:19:04;;;;;;;32.80;16.00;;;;;;;;;;6204143;23;20024;-86
2022/10/13 01:21:33;;;;;;;30.35;15.73;;;;;;;;;;6202269;23;20021;-87
2022/10/13 01:23:59;;;;;;;27.25;15.55;;;;;;;;;;6178425;23;20342;-87
2022/10/13 01:26:53;;;;;;;27.02;16.42;;;;;;;;;;6202935;23;20024;-87
2022/10/13 01:29:22;;;;;;;31.75;16.55;;;;;;;;;;6203736;23;20020;-88
2022/10/13 01:32:07;;;;;;;33.00;16.45;;;;;;;;;;6202955;23;20059;-87
2022/10/13 01:34:52;;;;;;;32.45;17.15;;;;;;;;;;6176939;23;20051;-87
2022/10/13 01:37:31;;;;;;;30.35;17.20;;;;;;;;;;6204670;23;20020;-86
2022/10/13 01:40:11;;;;;;;28.45;16.75;;;;;;;;;;6204175;23;20020;-86
2022/10/13 01:43:04;;;;;;;31.73;17.65;;;;;;;;;;6206225;23;20052;-86
2022/10/13 01:45:35;;;;;;;33.65;17.48;;;;;;;;;;6201461;23;20099;-87
2022/10/13 01:48:11;;;;;;;35.78;17.08;;;;;;;;;;6178896;23;20074;-86
2022/10/13 01:50:37;;;;;;;37.28;17.65;;;;;;;;;;6205406;23;20095;-87
2022/10/13 01:53:04;;;;;;;29.15;18.25;;;;;;;;;;6205530;23;20068;-87
2022/10/13 01:55:30;;;;;;;28.90;17.77;;;;;;;;;;6182116;23;20144;-88
2022/10/13 01:57:57;;;;;;;32.45;17.83;;;;;;;;;;6202929;23;20025;-87
2022/10/13 02:00:23;;;;;;;39.72;17.63;;;;;;;;;;6206382;23;20020;-87
2022/10/13 02:02:55;;;;;;;32.80;17.45;;;;;;;;;;6207620;23;20449;-86
2022/10/13 02:05:47;;;;;;;28.98;17.85;;;;;;;;;;6172575;23;20055;-86
2022/10/13 02:08:32;;;;;;;31.35;17.65;;;;;;;;;;6172797;23;20087;-87
2022/10/13 02:11:11;;;;;;;40.03;19.50;;;;;;;;;;6149059;23;20028;-86
2022/10/13 02:13:38;;;;;;;35.08;18.70;;;;;;;;;;6174716;23;20476;-86
2022/10/13 02:16:05;;;;;;;35.35;19.95;;;;;;;;;;6170144;23;20084;-85
2022/10/13 02:18:32;;;;;;;32.88;18.20;;;;;;;;;;6174457;23;20021;-87
2022/10/13 02:20:59;;;;;;;31.45;17.02;;;;;;;;;;6172453;23;20472;-87
2022/10/13 02:23:26;;;;;;;34.03;18.40;;;;;;;;;;6149572;23;20024;-86
2022/10/13 02:25:53;;;;;;;26.80;17.73;;;;;;;;;;6146469;23;20084;-86
2022/10/13 02:28:19;;;;;;;31.13;17.77;;;;;;;;;;6173494;23;20044;-88
2022/10/13 02:31:11;;;;;;;33.00;17.73;;;10.10;99.90;;;;;;6146741;23;20021;-86
2022/10/13 02:33:37;;;;;;;32.30;17.80;;;;;;;;;;6177015;23;20028;-86
2022/10/13 02:36:03;;;;;;;30.65;18.73;;;;;;;;;;6150853;23;20025;-87
2022/10/13 02:38:29;;;;;;;36.30;18.88;;;;;;;;;;6190266;23;20077;-86
2022/10/13 02:40:55;;;;;;;34.22;18.45;;;;;;;;;;6169047;23;20021;-86
2022/10/13 02:43:21;;;;;;;39.30;18.88;;;;;;;;;;6184168;23;20021;-86
2022/10/13 02:45:48;;;;;;;30.15;18.20;;;;;;;;;;6152839;23;20095;-86
2022/10/13 02:48:14;;;;;;;36.63;18.88;;;;;;;;;;6126138;23;20021;-85
2022/10/13 02:50:40;;;;;;;32.05;18.88;;;;;;;;;;6181281;23;20028;-86
2022/10/13 02:53:06;;;;;;;34.28;19.33;;;;;;;;;;6176649;23;20017;-87
2022/10/13 02:55:32;;;;;;;37.50;19.25;;;;;;;;;;6151425;23;20028;-89
2022/10/13 02:57:58;;;;;;;35.78;19.45;;;;;;;;;;6175257;23;20438;-86
2022/10/13 03:00:24;;;;;;;36.55;19.45;;;;;;;;;;6125894;23;20013;-87
2022/10/13 03:02:59;;;;;;;36.10;20.17;;;;;;;;;;6174902;23;20362;-86
2022/10/13 03:05:55;;;;;;;32.13;19.00;;;;;;;;;;6173209;23;20052;-87
2022/10/13 03:08:46;;;;;;;28.33;18.95;;;;;;;;;;6173967;23;20477;-86
2022/10/13 03:11:20;;;;;;;30.00;18.05;;;;;;;;;;6173778;23;20028;-87
2022/10/13 03:13:46;;;;;;;31.65;17.88;;;;;;;;;;6151408;23;20051;-86
2022/10/13 03:16:12;;;;;;;32.58;17.73;;;;;;;;;;6174719;23;20863;-86
2022/10/13 03:18:38;;;;;;;31.98;18.63;;;;;;;;;;6178322;23;20462;-87
2022/10/13 03:21:05;;;;;;;31.73;18.20;;;;;;;;;;6148463;23;20021;-87
2022/10/13 03:23:40;;;;;;;27.52;17.65;;;;;;;;;;6176132;23;20040;-87
2022/10/13 03:26:15;;;;;;;31.27;18.30;;;;;;;;;;6173998;23;20032;-86
2022/10/13 03:28:49;;;;;;;32.55;17.77;;;;;;;;;;6178029;23;20017;-86
2022/10/13 03:31:16;;;;;;;36.63;19.02;;;;;;;;;;6173419;23;20023;-87
2022/10/13 03:34:00;;;;;;;27.77;17.67;;;;;;;;;;6175495;23;20021;-87
2022/10/13 03:36:26;;;;;;;37.13;19.35;;;;;;;;;;6176463;23;20029;-87
2022/10/13 03:38:52;;;;;;;32.20;18.20;;;;;;;;;;6175967;23;20024;-87
2022/10/13 03:41:18;;;;;;;32.50;18.65;;;;;;;;;;6177299;23;20100;-87
2022/10/13 03:43:45;;;;;;;28.38;18.02;;;;;;;;;;6172919;23;20040;-86
2022/10/13 03:46:12;;;;;;;32.42;18.75;;;;;;;;;;6177791;23;20021;-86
2022/10/13 03:48:38;;;;;;;32.33;18.63;;;;;;;;;;6173886;23;20036;-86
2022/10/13 03:51:14;;;;;;;31.15;19.27;;;;;;;;;;6176599;23;20433;-87
2022/10/13 03:53:40;;;;;;;34.58;19.23;;;;;;;;;;6149289;23;20021;-88
2022/10/13 03:56:06;;;;;;;37.33;18.75;;;;;;;;;;6177619;23;20024;-87
2022/10/13 03:58:33;;;;;;;39.25;19.35;;;;;;;;;;6178476;23;20021;-87
2022/10/13 04:01:15;;;;;;;33.67;20.95;;;;;;;;;;6174719;23;20021;-86
2022/10/13 04:03:48;;;;;;;36.40;20.30;;;;;;;;;;6152606;23;20013;-87
2022/10/13 04:06:23;;;;;;;34.95;20.45;;;;;;;;;;6143841;23;20036;-88
2022/10/13 04:11:49;;;;;;;31.20;19.80;;;;;;;;;;6175129;23;20110;-88
2022/10/13 04:14:21;;;;;;;43.65;22.77;;;;;;;;;;6177735;23;20067;-87
2022/10/13 04:16:47;;;;;;;37.22;22.40;;;;;;;;;;6173655;23;20017;-87
2022/10/13 04:19:14;;;;;;;41.05;22.75;;;;;;;;;;6179280;23;20782;-88
2022/10/13 04:21:41;;;;;;;40.92;23.05;;;;;;;;;;6150972;23;20466;-87
2022/10/13 04:31:08;;;;;;;37.47;23.20;;;10.00;99.90;;;;;;6192149;23;20021;-88
2022/10/13 04:36:28;;;;;;;48.88;26.77;;;;;;;;;;6181990;23;20028;-88
2022/10/13 04:39:14;;;;;;;49.92;26.50;;;;;;;;;;6207227;23;20188;-88
2022/10/13 04:41:49;;;;;;;56.38;28.15;;;;;;;;;;6156875;23;20013;-88
2022/10/13 04:44:15;;;;;;;51.45;28.48;;;;;;;;;;6179017;23;20456;-88
2022/10/13 04:46:57;;;;;;;48.45;27.85;;;;;;;;;;6144713;23;20036;-87
2022/10/13 04:49:29;;;;;;;47.13;26.58;;;;;;;;;;6126506;23;20025;-88
2022/10/13 04:52:14;;;;;;;48.33;26.75;;;9.90;99.90;;;;;;6177195;23;20956;-87
2022/10/13 04:57:47;;;;;;;48.33;27.42;;;;;;;;;;6175443;23;20032;-89
2022/10/13 05:03:22;;;;;;;47.08;28.38;;;;;;;;;;6057360;23;20027;-88
2022/10/13 05:06:03;;;;;;;53.75;27.73;;;;;;;;;;6148228;23;20031;-90
2022/10/13 05:08:31;;;;;;;46.58;26.88;;;;;;;;;;6177669;23;20040;-88
2022/10/13 05:11:03;;;;;;;54.65;29.50;;;;;;;;;;6126803;23;20088;-86
2022/10/13 05:13:32;;;;;;;49.88;28.50;;;;;;;;;;6102245;23;20032;-87
2022/10/13 05:15:58;;;;;;;44.72;27.90;;;;;;;;;;6151222;23;20021;-88
2022/10/13 05:18:24;;;;;;;51.55;29.38;;;;;;;;;;6177685;23;20017;-88
2022/10/13 05:20:50;;;;;;;53.00;29.63;;;;;;;;;;6176847;23;20053;-87
2022/10/13 05:23:29;;;;;;;49.03;28.10;;;;;;;;;;6176010;23;20025;-87
2022/10/13 05:26:05;;;;;;;49.08;28.60;;;;;;;;;;6175917;23;20366;-87
2022/10/13 05:28:59;;;;;;;51.55;30.02;;;;;;;;;;6177326;23;20133;-87
2022/10/13 05:31:38;;;;;;;53.53;30.35;;;;;;;;;;6175023;23;20043;-87
2022/10/13 05:34:04;;;;;;;59.47;30.52;;;;;;;;;;6179011;23;20079;-88
2022/10/13 05:36:31;;;;;;;53.42;31.15;;;;;;;;;;6148226;23;20017;-87
2022/10/13 05:39:16;;;;;;;59.88;32.33;;;;;;;;;;6176719;23;20017;-91
2022/10/13 05:42:11;;;;;;;58.85;31.40;;;;;;;;;;6153702;23;20040;-92
2022/10/13 05:44:50;;;;;;;;;;;;;;;;;;;;;
2022/10/13 05:50:36;;;;;;;73.53;35.03;;;;;;;;;;6175934;23;20025;-90
2022/10/13 05:53:02;;;;;;;61.28;34.00;;;;;;;;;;6148172;23;20013;-89
2022/10/13 05:55:36;;;;;;;66.70;35.65;;;;;;;;;;6147776;23;20028;-86
2022/10/13 05:58:03;;;;;;;73.47;37.40;;;;;;;;;;6171421;23;20023;-87
2022/10/13 06:00:42;;;;;;;66.13;35.58;;;;;;;;;;6147747;23;20021;-88
2022/10/13 06:03:30;;;;;;;61.80;36.30;;;;;;;;;;6172669;23;20131;-88
2022/10/13 06:05:56;;;;;;;67.30;35.60;;;;;;;;;;6173435;23;20035;-87
2022/10/13 06:08:31;;;;;;;74.80;37.47;;;;;;;;;;6171934;23;20023;-88
2022/10/13 06:11:04;;;;;;;68.20;37.35;;;;;;;;;;6125111;23;20028;-88
2022/10/13 06:20:08;;;;;;;75.22;37.90;;;;;;;;;;6180532;23;20369;-88
2022/10/13 06:22:37;;;;;;;76.43;39.72;;;;;;;;;;6182593;23;20516;-89
2022/10/13 06:25:05;;;;;;;78.35;39.70;;;;;;;;;;6184043;23;20031;-88
2022/10/13 06:27:37;;;;;;;72.78;39.50;;;;;;;;;;6209048;23;20035;-89
2022/10/13 06:30:03;;;;;;;69.18;38.85;;;;;;;;;;6185413;23;20071;-88
2022/10/13 06:32:30;;;;;;;70.50;37.70;;;;;;;;;;6210946;23;20031;-88
2022/10/13 06:34:56;;;;;;;82.35;40.80;;;;;;;;;;6136494;23;20412;-88
2022/10/13 06:37:34;;;;;;;74.28;38.60;;;;;;;;;;6135139;23;20107;-89
2022/10/13 06:40:06;;;;;;;81.00;39.85;;;;;;;;;;6185500;23;20020;-88
2022/10/13 06:42:33;;;;;;;76.85;39.50;;;;;;;;;;6133641;23;20103;-89
2022/10/13 06:45:11;;;;;;;75.97;42.10;;;;;;;;;;6212470;23;20043;-89
2022/10/13 06:47:37;;;;;;;94.45;46.03;;;;;;;;;;6158644;23;20037;-88
2022/10/13 06:50:03;;;;;;;93.32;45.55;;;;;;;;;;6184469;23;20367;-87
2022/10/13 06:52:29;;;;;;;80.70;43.50;;;;;;;;;;6159831;23;20023;-86
2022/10/13 06:55:07;;;;;;;89.45;46.70;;;;;;;;;;6185342;23;20071;-87
2022/10/13 06:57:33;;;;;;;91.90;45.78;;;;;;;;;;6161251;23;20030;-87
2022/10/13 07:00:03;;;;;;;97.53;47.95;;;;;;;;;;6212658;23;20021;-88
2022/10/13 07:02:35;;;;;;;98.55;51.47;;;;;;;;;;6183279;23;20749;-89
2022/10/13 07:05:08;;;;;;;91.88;46.40;;;;;;;;;;6185383;23;20020;-88
2022/10/13 07:07:35;;;;;;;85.32;45.92;;;;;;;;;;6183705;23;20048;-87
2022/10/13 07:10:16;;;;;;;93.45;48.22;;;;;;;;;;6185867;23;20078;-89
2022/10/13 07:12:42;;;;;;;90.80;46.33;;;;;;;;;;6158265;23;20055;-88
2022/10/13 07:15:08;;;;;;;94.45;47.00;;;;;;;;;;6134959;23;20019;-87
2022/10/13 07:17:41;;;;;;;93.53;49.47;;;;;;;;;;6158008;23;20029;-90
2022/10/13 07:20:23;;;;;;;86.82;46.83;;;;;;;;;;6212299;23;20028;-88
2022/10/13 07:22:49;;;;;;;86.95;46.63;;;;;;;;;;6209796;23;20047;-88
2022/10/13 07:25:15;;;;;;;87.57;48.85;;;;;;;;;;6159889;23;20031;-89
2022/10/13 07:27:47;;;;;;;87.35;50.25;;;;;;;;;;6159956;23;20091;-91
2022/10/13 07:30:20;;;;;;;93.32;48.72;;;;;;;;;;6212336;23;20036;-87
2022/10/13 07:33:04;;;;;;;87.20;47.85;;;;;;;;;;6183731;23;20078;-91
2022/10/13 07:35:31;;;;;;;95.65;49.45;;;;;;;;;;6159507;23;20027;-88
2022/10/13 07:38:36;;;;;;;94.40;51.47;;;11.00;99.90;;;;;;6184629;23;20082;-90
2022/10/13 07:41:17;;;;;;;89.75;50.22;;;;;;;;;;6183953;23;20024;-90
2022/10/13 07:43:43;;;;;;;89.15;48.70;;;;;;;;;;6120156;23;20026;-90
2022/10/13 07:46:11;;;;;;;86.22;45.50;;;;;;;;;;6117609;23;20395;-88
2022/10/13 07:48:37;;;;;;;74.22;42.70;;;;;;;;;;6096037;23;20018;-92
2022/10/13 07:51:07;;;;;;;67.78;43.25;;;;;;;;;;6094600;23;20022;-88
2022/10/13 07:53:34;;;;;;;75.82;44.13;;;;;;;;;;6128828;23;20014;-88
2022/10/13 07:56:04;;;;;;;74.93;43.05;;;;;;;;;;6106545;23;20028;-93
2022/10/13 08:06:14;;;;;;;67.05;37.92;;;;;;;;;;6236064;23;20067;-91
2022/10/13 08:09:14;;;;;;;60.42;34.33;;;;;;;;;;6192728;23;20020;-91
2022/10/13 08:11:58;;;;;;;57.60;33.53;;;;;;;;;;6195336;23;20039;-95
2022/10/13 09:17:46;;;;;;;51.08;31.98;;;;;;;;;;6211766;23;20059;-91
2022/10/13 09:40:30;;;;;;;53.63;33.25;;;;;;;;;;6175389;23;20087;-93
2022/10/13 10:10:55;;;;;;;56.17;35.25;;;;;;;;;;6211186;22;20081;-90
2022/10/13 10:23:26;;;;;;;58.17;36.30;;;13.20;99.90;;;;;;6192097;23;20044;-94
2022/10/13 10:29:10;;;;;;;59.90;39.70;;;;;;;;;;6176657;23;20025;31
2022/10/13 11:13:25;;;;;;;70.43;39.65;;;13.50;99.90;;;;;;6159162;23;20056;-91
2022/10/13 11:24:21;;;;;;;62.40;37.50;;;;;;;;;;6218276;23;20032;-91
2022/10/13 12:05:06;;;;;;;43.13;30.58;;;14.00;99.90;;;;;;6191101;22;20417;-91
2022/10/13 12:57:07;;;;;;;45.83;31.73;;;;;;;;;;6179569;23;20048;-95
2022/10/13 13:26:13;;;;;;;33.45;25.15;;;;;;;;;;6188964;23;20035;-92
2022/10/13 13:52:51;;;;;;;36.17;27.50;;;;;;;;;;6182954;23;20337;-91
2022/10/13 14:07:18;;;;;;;33.78;26.55;;;;;;;;;;6152701;23;20021;-91
2022/10/13 14:19:53;;;;;;;38.97;30.55;;;14.30;99.90;;;;;;6118724;23;20082;-91
2022/10/13 14:28:57;;;;;;;44.03;32.20;;;;;;;;;;6208194;23;20023;-94
2022/10/13 14:32:00;;;;;;;41.67;31.85;;;;;;;;;;6180944;23;20028;-92
2022/10/13 14:37:49;;;;;;;40.22;31.50;;;;;;;;;;6211411;23;20063;-92
2022/10/13 14:43:38;;;;;;;45.55;30.58;;;;;;;;;;6188712;23;20027;-92
2022/10/13 14:49:23;;;;;;;42.60;30.12;;;;;;;;;;6104239;23;1220579;-91
2022/10/13 14:55:13;;;;;;;45.65;29.63;;;;;;;;;;6182088;23;20123;-93
2022/10/13 15:14:18;;;;;;;41.97;30.25;;;;;;;;;;6212005;22;19966;-91
2022/10/13 15:20:14;;;;;;;43.25;32.80;;;;;;;;;;6209202;23;20108;-89
2022/10/13 15:37:39;;;;;;;12.27;7.28;;;;;;;;;;6198444;23;20511;-91
2022/10/13 15:55:01;;;;;;;16.27;7.10;;;;;;;;;;6212252;23;20401;-88
2022/10/13 15:57:36;;;;;;;9.13;4.78;;;;;;;;;;6184179;23;20057;-87
2022/10/13 16:00:03;;;;;;;12.63;4.60;;;;;;;;;;6209474;23;20059;-89
2022/10/13 16:02:42;;;;;;;17.75;6.00;;;;;;;;;;6212922;23;20035;-89
2022/10/13 16:05:21;;;;;;;14.77;6.60;;;;;;;;;;6186771;23;20067;-87
2022/10/13 16:07:53;;;;;;;10.07;5.28;;;;;;;;;;6184757;23;20028;-89
2022/10/13 16:10:38;;;;;;;13.00;4.50;;;;;;;;;;6168435;23;20025;-87
2022/10/13 16:13:12;;;;;;;13.85;6.10;;;;;;;;;;6153417;23;20405;-88
2022/10/13 16:15:44;;;;;;;;;;;;;;;;;;6179043;23;20113;-86
2022/10/13 16:18:36;;;;;;;11.10;5.53;;;;;;;;;;6178359;23;19972;-87
2022/10/13 16:21:25;;;;;;;9.93;3.20;;;;;;;;;;6142647;23;20025;-86
2022/10/13 16:34:33;;;;;;;11.50;6.50;;;;;;;;;;6106541;23;20024;-86
2022/10/13 16:37:05;;;;;;;15.95;6.82;;;;;;;;;;6156740;23;20028;-88
2022/10/13 16:50:37;;;;;;;14.82;5.10;;;;;;;;;;6211468;23;20469;-90
2022/10/13 16:53:35;;;;;;;15.27;5.28;;;;;;;;;;6184526;23;20016;-90
2022/10/13 16:56:52;;;;;;;15.77;4.85;;;13.30;99.90;;;;;;6207486;23;20389;-90
2022/10/13 16:59:22;;;;;;;11.60;5.13;;;;;;;;;;6210130;23;20020;-89
2022/10/13 17:08:28;;;;;;;11.57;4.72;;;;;;;;;;6180369;23;20028;-90
2022/10/13 17:11:07;;;;;;;25.65;5.32;;;;;;;;;;6180370;23;20023;-89
2022/10/13 17:13:52;;;;;;;18.00;4.90;;;;;;;;;;6207838;23;20110;-87
2022/10/13 17:16:34;;;;;;;10.43;5.18;;;;;;;;;;6177553;23;20046;-88
2022/10/13 17:19:15;;;;;;;11.82;5.88;;;;;;;;;;6180305;23;20028;-87
2022/10/13 17:21:42;;;;;;;18.88;7.38;;;;;;;;;;6179020;23;20924;-87
2022/10/13 17:24:21;;;;;;;15.50;7.65;;;;;;;;;;6154130;23;20025;-89
2022/10/13 17:27:03;;;;;;;10.93;5.70;;;;;;;;;;6177239;23;20034;-88
2022/10/13 17:29:29;;;;;;;17.05;5.25;;;;;;;;;;6156367;23;20342;-87
2022/10/13 17:31:55;;;;;;;11.82;5.93;;;;;;;;;;6177309;23;20039;-87
2022/10/13 17:34:24;;;;;;;11.77;5.82;;;;;;;;;;6157275;23;20012;-86
2022/10/13 17:36:53;;;;;;;12.93;5.93;;;;;;;;;;6145432;23;20046;-87
2022/10/13 17:39:19;;;;;;;9.85;5.43;;;;;;;;;;6151289;23;20052;-87
2022/10/13 17:41:58;;;;;;;11.80;5.95;;;;;;;;;;6127577;23;20086;-89
2022/10/13 17:44:34;;;;;;;8.85;6.13;;;;;;;;;;6178089;23;20021;-88
2022/10/13 17:47:00;;;;;;;9.65;5.55;;;;;;;;;;6152464;23;20025;-88
2022/10/13 17:49:47;;;;;;;11.18;5.90;;;;;;;;;;6153770;23;20017;-87
2022/10/13 17:54:47;;;;;;;14.15;5.80;;;;;;;;;;6206566;23;20341;-87
2022/10/13 17:57:52;;;;;;;;;;;;;;;;;;;;;
2022/10/13 18:00:18;;;;;;;12.80;6.20;;;;;;;;;;6199104;23;20029;-87
2022/10/13 18:03:00;;;;;;;9.15;6.30;;;;;;;;;;6179142;23;20611;-87
2022/10/13 18:05:41;;;;;;;10.90;5.95;;;;;;;;;;6156544;23;20103;-87
2022/10/13 18:08:08;;;;;;;9.52;5.63;;;;;;;;;;6128163;23;20016;-89
2022/10/13 18:10:37;;;;;;;14.90;6.50;;;;;;;;;;6156572;23;20607;-88
2022/10/13 18:13:09;;;;;;;10.85;5.07;;;;;;;;;;6154514;23;20091;-88
2022/10/13 18:15:51;;;;;;;14.85;5.70;;;;;;;;;;6181788;23;20021;-88
2022/10/13 18:18:32;;;;;;;10.65;5.82;;;;;;;;;;6158681;23;20028;-88
2022/10/13 18:21:31;;;;;;;;;;;;;;;;;;;;;
2022/10/13 18:37:27;;;;;;;17.17;8.52;;;;;;;;;;6191672;23;20029;-88
2022/10/13 18:40:08;;;;;;;14.48;8.30;;;;;;;;;;6159783;23;20353;-88
2022/10/13 18:42:35;;;;;;;11.73;8.80;;;;;;;;;;6190958;23;20028;-89
2022/10/13 18:45:16;;;;;;;17.27;7.63;;;;;;;;;;6183625;23;20390;-90
2022/10/13 18:48:16;;;;;;;14.02;8.00;;;;;;;;;;6192952;23;20016;-87
2022/10/13 18:53:40;;;;;;;16.50;9.55;;;;;;;;;;6207177;23;20345;-87
2022/10/13 18:56:31;;;;;;;14.32;8.15;;;;;;;;;;6183008;23;20016;-90
2022/10/13 18:59:16;;;;;;;15.98;8.77;;;;;;;;;;6156330;23;20025;-87
2022/10/13 19:01:43;;;;;;;13.38;8.20;;;;;;;;;;6210492;23;20811;-88
2022/10/13 19:04:30;;;;;;;14.40;9.18;;;;;;;;;;6128496;23;20502;-88
2022/10/13 19:07:06;;;;;;;10.15;7.95;;;;;;;;;;6149453;23;20017;-89
2022/10/13 19:09:58;;;;;;;13.85;8.95;;;;;;;;;;6071688;23;20351;-88
2022/10/13 19:15:50;;;;;;;16.85;9.43;;;;;;;;;;6211656;23;20027;-89
2022/10/13 19:18:32;;;;;;;13.32;9.77;;;;;;;;;;6209405;23;20025;-87
2022/10/13 19:20:58;;;;;;;16.75;9.70;;;;;;;;;;6185505;23;20023;-88
2022/10/13 19:35:28;;;;;;;18.65;10.18;;;;;;;;;;6211808;23;20048;-89
2022/10/13 19:37:54;;;;;;;18.92;9.52;;;;;;;;;;6213548;23;20020;-90
2022/10/13 19:40:40;;;;;;;15.52;8.88;;;;;;;;;;6159870;23;20021;-89
2022/10/13 19:43:25;;;;;;;17.35;10.15;;;;;;;;;;6131309;23;20029;-87
2022/10/13 19:45:58;;;;;;;19.58;10.18;;;;;;;;;;6157351;23;20031;-88
2022/10/13 19:48:46;;;;;;;14.88;9.32;;;;;;;;;;6133311;23;20009;-88
2022/10/13 19:51:21;;;;;;;18.27;9.90;;;;;;;;;;6156035;23;20029;-89
2022/10/13 20:16:15;;;;;;;36.35;20.73;;;;;;;;;;6216282;23;20055;-88
2022/10/13 20:18:57;;;;;;;40.15;21.58;;;;;;;;;;6186378;23;20085;-88
2022/10/13 20:21:35;;;;;;;45.30;23.40;;;;;;;;;;6214805;23;20047;-88
2022/10/13 20:24:17;;;;;;;48.38;25.80;;;;;;;;;;6186561;23;20449;-89
2022/10/13 20:26:44;;;;;;;45.08;25.98;;;;;;;;;;6212983;23;20017;-88
2022/10/13 20:29:16;;;;;;;51.95;28.50;;;;;;;;;;6187181;23;20035;-89
2022/10/13 20:31:48;;;;;;;49.35;27.02;;;;;;;;;;6211379;23;20446;-89
2022/10/13 20:34:21;;;;;;;50.13;27.67;;;;;;;;;;6212228;23;20451;-89
2022/10/13 20:37:01;;;;;;;47.58;27.15;;;;;;;;;;6158954;23;20032;-89
2022/10/13 20:39:27;;;;;;;47.10;26.25;;;;;;;;;;6211652;23;20029;-89
2022/10/13 20:41:54;;;;;;;50.33;27.77;;;;;;;;;;6211018;23;20017;-88
2022/10/13 20:44:36;;;;;;;48.83;27.75;;;;;;;;;;6213827;23;20353;-87
2022/10/13 20:47:17;;;;;;;47.30;27.63;;;;;;;;;;6212082;23;20122;-87
2022/10/13 20:49:58;;;;;;;57.05;27.95;;;;;;;;;;6162408;23;20025;-88
2022/10/13 20:52:40;;;;;;;50.60;27.00;;;;;;;;;;6185116;23;20024;-88
2022/10/13 20:55:06;;;;;;;49.13;27.67;;;;;;;;;;6186552;23;20154;-88
2022/10/13 20:57:45;;;;;;;52.58;26.08;;;;;;;;;;6210747;23;20020;-88
2022/10/13 21:00:27;;;;;;;49.40;27.75;;;;;;;;;;6185649;23;20032;-86
2022/10/13 21:02:53;;;;;;;57.75;30.00;;;;;;;;;;6161884;23;20017;-89
2022/10/13 21:05:19;;;;;;;54.58;30.55;;;;;;;;;;6150978;23;20043;-88
2022/10/13 21:07:46;;;;;;;59.70;31.02;;;;;;;;;;6152906;23;20056;-89
2022/10/13 21:10:12;;;;;;;54.85;30.13;;;;;;;;;;6180142;23;20020;-88
2022/10/13 21:12:38;;;;;;;54.08;30.92;;;;;;;;;;6178865;23;20051;-88
2022/10/13 21:15:07;;;;;;;52.95;30.05;;;;;;;;;;6126664;23;20032;-89
2022/10/13 21:17:37;;;;;;;55.17;31.17;;;;;;;;;;6153998;23;20028;-87
2022/10/13 21:20:18;;;;;;;57.67;30.98;;;;;;;;;;6153211;23;20028;-88
2022/10/13 21:22:59;;;;;;;49.70;30.55;;;;;;;;;;6180476;23;20020;-89
2022/10/13 21:25:44;;;;;;;58.10;34.53;;;;;;;;;;6152859;23;20048;-89
2022/10/13 21:28:10;;;;;;;62.78;35.33;;;;;;;;;;6178403;23;20021;-90
2022/10/13 21:30:49;;;;;;;62.72;33.25;;;;;;;;;;6153163;23;20020;-88
2022/10/13 21:35:43;;;;;;;67.82;36.70;;;;;;;;;;6207423;23;20469;-90
2022/10/13 21:38:17;;;;;;;60.38;35.03;;;;;;;;;;6177168;23;20104;-88
2022/10/13 21:41:11;;;;;;;69.10;40.38;;;;;;;;;;6158491;23;20442;-90
2022/10/13 21:43:43;;;;;;;64.75;39.40;;;;;;;;;;6180421;23;20047;-89
2022/10/13 21:46:16;;;;;;;59.75;30.73;;;;;;;;;;6206967;23;20047;-90
2022/10/13 21:58:58;;;;;;;64.30;33.65;;;;;;;;;;6207058;23;20054;-90
2022/10/13 22:01:50;;;;;;;73.90;35.55;;;;;;;;;;6134107;23;20022;-90
2022/10/13 22:04:16;;;;;;;76.88;33.33;;;;;;;;;;6092883;23;20029;-88
2022/10/13 22:06:48;;;;;;;86.80;35.65;;;;;;;;;;6122324;23;20490;-88
2022/10/13 22:09:23;;;;;;;75.55;35.50;;;;;;;;;;6153650;23;20028;-88
2022/10/13 22:11:49;;;;;;;72.55;35.33;;;;;;;;;;6179555;23;20029;-87
2022/10/13 22:14:22;;;;;;;75.63;35.75;;;;;;;;;;6155109;23;20044;-87
2022/10/13 22:16:49;;;;;;;97.65;40.47;;;;;;;;;;6167577;23;20041;-88
2022/10/13 22:23:13;;;;;;;94.68;39.75;;;;;;;;;;6174902;23;20021;-89
2022/10/13 22:26:20;;;;;;;89.93;39.22;;;;;;;;;;6148681;23;20056;-88
2022/10/13 22:28:47;;;;;;;79.00;41.28;;;;;;;;;;6172590;23;20104;-87
2022/10/13 22:31:13;;;;;;;80.63;40.92;;;;;;;;;;6150703;23;20099;-89
2022/10/13 22:33:45;;;;;;;104.03;45.03;;;;;;;;;;6170663;23;20028;-88
2022/10/13 22:36:18;;;;;;;100.82;45.80;;;;;;;;;;6173994;23;20025;-87
2022/10/13 22:38:52;;;;;;;119.53;47.53;;;;;;;;;;6145722;23;20025;-88
2022/10/13 22:41:19;;;;;;;113.78;45.08;;;;;;;;;;6174302;23;20027;-88
2022/10/13 22:46:44;;;;;;;102.47;46.45;;;;;;;;;;6173473;23;20033;-87
2022/10/13 22:49:10;;;;;;;93.20;44.05;;;;;;;;;;6170807;23;20429;-88
2022/10/13 22:51:42;;;;;;;95.78;43.75;;;;;;;;;;6147928;23;20056;-87
2022/10/13 22:54:39;;;;;;;88.85;42.40;;;;;;;;;;6138769;23;20067;-88
2022/10/13 23:00:11;;;;;;;91.15;44.72;;;;;;;;;;6116684;23;20537;-87
2022/10/13 23:02:37;;;;;;;94.15;46.13;;;;;;;;;;6118478;23;20335;-87
2022/10/13 23:05:04;;;;;;;98.53;45.33;;;;;;;;;;6071805;23;20103;-87
2022/10/13 23:07:42;;;;;;;88.38;44.70;;;;;;;;;;6119369;23;20017;-88
2022/10/13 23:10:11;;;;;;;90.65;43.45;;;;;;;;;;6143603;23;20021;-87
2022/10/13 23:12:44;;;;;;;90.15;43.08;;;;;;;;;;6143726;23;20023;-88
2022/10/13 23:15:16;;;;;;;82.67;42.07;;;;;;;;;;6095347;23;20081;-88
2022/10/13 23:17:48;;;;;;;75.60;39.53;;;;;;;;;;6091482;23;20277;-88
2022/10/13 23:20:23;;;;;;;81.20;39.78;;;;;;;;;;6147729;23;20025;-86
2022/10/13 23:23:07;;;;;;;75.05;38.72;;;;;;;;;;6118663;23;20036;-87
2022/10/13 23:25:34;;;;;;;73.70;38.75;;;;;;;;;;6111192;23;20045;-87
2022/10/13 23:28:00;;;;;;;88.65;40.40;;;;;;;;;;6150003;23;20017;-87
2022/10/13 23:30:44;;;;;;;97.57;43.05;;;;;;;;;;6176736;23;20134;-86
2022/10/13 23:40:17;;;;;;;82.63;38.72;;;;;;;;;;6183579;23;20017;-87
2022/10/13 23:42:55;;;;;;;80.15;38.45;;;;;;;;;;6148479;23;20540;-86
2022/10/13 23:45:39;;;;;;;78.68;38.08;;;;;;;;;;6125875;23;20028;-87
2022/10/13 23:48:05;;;;;;;84.30;40.75;;;;;;;;;;6172715;23;20025;-86
2022/10/13 23:50:44;;;;;;;77.53;38.22;;;;;;;;;;6175078;23;20492;-87
2022/10/13 23:53:41;;;;;;;98.18;38.70;;;;;;;;;;6173874;23;20021;-88
2022/10/13 23:56:13;;;;;;;69.40;36.42;;;;;;;;;;6145880;23;20031;-87
2022/10/13 23:58:41;;;;;;;95.25;38.75;;;;;;;;;;6126744;23;20053;-87
